Time;durP1;ratioP1;P1;durP2;ratioP2;P2;SDS_P1;SDS_P2;PMS_P1;PMS_P2;Temp;Humidity;BMP_temperature;BMP_pressure;BME280_temperature;BME280_humidity;BME280_pressure;Samples;Min_cycle;Max_cycle;Signal;HPM_P1;HPM_P2
2022/03/24 00:02:04;;;;;;;63.80;37.63;;;6.70;99.90;;;;;;5075294;28;20557;-68
2022/03/24 00:04:30;;;;;;;54.63;36.28;;;6.70;99.90;;;;;;5092384;28;20488;-69
2022/03/24 00:06:59;;;;;;;57.00;34.95;;;6.70;99.90;;;;;;5074985;28;20048;-68
2022/03/24 00:09:26;;;;;;;53.50;36.20;;;6.70;99.90;;;;;;5074684;28;20565;-69
2022/03/24 00:11:55;;;;;;;57.88;35.85;;;6.60;99.90;;;;;;5092256;28;20044;-69
2022/03/24 00:14:22;;;;;;;58.90;38.05;;;6.60;99.90;;;;;;5074890;28;20373;-70
2022/03/24 00:16:49;;;;;;;58.33;38.45;;;6.60;99.90;;;;;;5075254;28;20502;-70
2022/03/24 00:19:19;;;;;;;60.55;38.58;;;6.60;99.90;;;;;;5092139;28;20052;-69
2022/03/24 00:21:46;;;;;;;61.42;38.28;;;6.50;99.90;;;;;;5075244;28;20494;-69
2022/03/24 00:24:15;;;;;;;58.58;37.22;;;6.50;99.90;;;;;;5092240;28;20461;-68
2022/03/24 00:26:42;;;;;;;59.47;37.13;;;6.50;99.90;;;;;;5071357;28;20056;-69
2022/03/24 00:29:09;;;;;;;51.85;33.10;;;6.40;99.90;;;;;;5054676;28;20048;-69
2022/03/24 00:31:36;;;;;;;54.85;35.63;;;6.40;99.90;;;;;;5054082;28;20048;-70
2022/03/24 00:34:03;;;;;;;54.92;35.92;;;6.30;99.90;;;;;;5072493;28;20048;-69
2022/03/24 00:36:30;;;;;;;60.58;38.90;;;6.30;99.90;;;;;;5089070;28;20392;-71
2022/03/24 00:38:57;;;;;;;60.53;37.92;;;6.30;99.90;;;;;;5074509;28;20093;-70
2022/03/24 00:41:25;;;;;;;60.40;37.20;;;6.20;99.90;;;;;;5096570;28;20051;-70
2022/03/24 00:43:52;;;;;;;59.67;36.03;;;6.20;99.90;;;;;;5078272;28;20454;-70
2022/03/24 00:46:21;;;;;;;59.95;36.42;;;6.20;99.90;;;;;;5096151;28;20048;-70
2022/03/24 00:48:48;;;;;;;57.10;36.30;;;6.10;99.90;;;;;;5096652;28;20477;-70
2022/03/24 00:51:15;;;;;;;60.03;37.28;;;6.00;99.90;;;;;;5096220;28;20047;-70
2022/03/24 00:53:42;;;;;;;62.08;37.95;;;6.00;99.90;;;;;;5077815;28;20054;-70
2022/03/24 00:56:10;;;;;;;60.25;37.72;;;6.00;99.90;;;;;;5078051;28;20043;-70
2022/03/24 00:58:38;;;;;;;64.80;38.10;;;6.00;99.90;;;;;;5096099;28;20565;-71
2022/03/24 01:01:06;;;;;;;59.22;38.45;;;5.90;99.90;;;;;;5095473;28;20044;-70
2022/03/24 01:03:33;;;;;;;64.97;39.72;;;5.90;99.90;;;;;;5078183;28;20044;-71
2022/03/24 01:06:00;;;;;;;64.22;39.88;;;5.90;99.90;;;;;;5095694;28;20483;-71
2022/03/24 01:08:27;;;;;;;71.05;40.45;;;5.90;99.90;;;;;;5095344;28;20062;-70
2022/03/24 01:10:55;;;;;;;65.85;40.22;;;5.90;99.90;;;;;;5077612;28;20104;-70
2022/03/24 01:13:22;;;;;;;64.05;40.42;;;5.80;99.90;;;;;;5095558;28;20075;-70
2022/03/24 01:15:50;;;;;;;65.10;40.72;;;5.80;99.90;;;;;;5096043;28;20044;-70
2022/03/24 01:18:18;;;;;;;67.32;39.78;;;5.80;99.90;;;;;;5078206;28;20406;-70
2022/03/24 01:20:46;;;;;;;71.95;41.13;;;5.80;99.90;;;;;;5094848;28;20503;-72
2022/03/24 01:23:13;;;;;;;64.63;40.53;;;5.80;99.90;;;;;;5095635;28;20048;-70
2022/03/24 01:25:42;;;;;;;69.20;40.38;;;5.80;99.90;;;;;;5077642;28;20111;-71
2022/03/24 01:28:10;;;;;;;66.47;40.83;;;5.80;99.90;;;;;;5095222;28;20561;-70
2022/03/24 01:30:39;;;;;;;66.25;41.03;;;5.80;99.90;;;;;;5077685;28;20056;-70
2022/03/24 01:33:08;;;;;;;67.50;41.38;;;5.80;99.90;;;;;;5095805;28;20048;-70
2022/03/24 01:35:35;;;;;;;62.67;40.50;;;5.70;99.90;;;;;;5076575;28;20079;-70
2022/03/24 01:38:03;;;;;;;70.90;41.58;;;5.70;99.90;;;;;;5095817;28;20056;-70
2022/03/24 01:40:30;;;;;;;67.32;41.13;;;5.70;99.90;;;;;;5077423;28;20044;-70
2022/03/24 01:42:57;;;;;;;70.07;42.97;;;5.70;99.90;;;;;;5094931;28;20044;-70
2022/03/24 01:45:25;;;;;;;67.72;41.75;;;5.70;99.90;;;;;;5095355;28;20054;-70
2022/03/24 01:47:52;;;;;;;64.35;40.22;;;5.60;99.90;;;;;;5077761;28;20052;-70
2022/03/24 01:50:20;;;;;;;70.28;42.78;;;5.60;99.90;;;;;;5094043;28;20047;-70
2022/03/24 01:52:47;;;;;;;69.80;41.45;;;5.60;99.90;;;;;;5077048;28;20047;-70
2022/03/24 01:55:14;;;;;;;72.25;41.85;;;5.60;99.90;;;;;;5077055;28;20121;-70
2022/03/24 01:57:45;;;;;;;65.82;42.22;;;5.50;99.90;;;;;;5094760;28;20083;-70
2022/03/24 02:00:13;;;;;;;73.13;41.85;;;5.50;99.90;;;;;;5095057;28;20509;-69
2022/03/24 02:02:42;;;;;;;67.45;41.92;;;5.50;99.90;;;;;;5076214;28;20052;-70
2022/03/24 02:05:10;;;;;;;68.90;42.10;;;5.50;99.90;;;;;;5074178;28;20051;-70
2022/03/24 02:07:38;;;;;;;71.85;42.83;;;5.40;99.90;;;;;;5075020;28;20055;-70
2022/03/24 02:10:09;;;;;;;68.90;41.88;;;5.40;99.90;;;;;;5074439;28;20097;-71
2022/03/24 02:12:36;;;;;;;;;;;5.40;99.90;;;;;;5058804;28;20080;-70
2022/03/24 02:15:04;;;;;;;73.70;43.05;;;5.40;99.90;;;;;;5056952;28;19920;-71
2022/03/24 02:17:31;;;;;;;76.93;41.25;;;5.40;99.90;;;;;;5056637;28;20057;-70
2022/03/24 02:19:59;;;;;;;75.45;45.53;;;5.40;99.90;;;;;;5056886;28;20415;-71
2022/03/24 02:22:28;;;;;;;74.72;43.15;;;5.30;99.90;;;;;;5074953;28;20052;-71
2022/03/24 02:24:55;;;;;;;78.00;45.17;;;5.30;99.90;;;;;;5056020;28;20062;-70
2022/03/24 02:27:24;;;;;;;70.43;41.90;;;5.30;99.90;;;;;;5086253;28;20048;-70
2022/03/24 02:29:51;;;;;;;75.97;43.75;;;5.30;99.90;;;;;;5076620;28;20530;-70
2022/03/24 02:32:20;;;;;;;77.82;43.78;;;5.30;99.90;;;;;;5076143;28;20446;-70
2022/03/24 02:34:51;;;;;;;76.03;44.47;;;5.30;99.90;;;;;;5072427;28;20094;-70
2022/03/24 02:37:20;;;;;;;76.50;44.25;;;5.30;99.90;;;;;;5056310;28;20527;-70
2022/03/24 02:39:50;;;;;;;74.32;43.75;;;5.30;99.90;;;;;;5055585;28;20052;-70
2022/03/24 02:42:19;;;;;;;71.18;42.67;;;5.20;99.90;;;;;;5074116;28;20491;-70
2022/03/24 02:44:48;;;;;;;72.90;42.40;;;5.30;99.90;;;;;;5072965;28;20113;-70
2022/03/24 02:47:16;;;;;;;70.00;41.45;;;5.20;99.90;;;;;;5094454;28;20093;-70
2022/03/24 02:49:44;;;;;;;74.53;42.35;;;5.20;99.90;;;;;;5076521;28;20048;-70
2022/03/24 02:52:12;;;;;;;69.82;40.75;;;5.20;99.90;;;;;;5075509;28;20106;-70
2022/03/24 02:54:39;;;;;;;71.00;41.30;;;5.10;99.90;;;;;;5075910;28;20052;-70
2022/03/24 02:57:09;;;;;;;76.72;41.95;;;5.10;99.90;;;;;;5094015;28;20055;-70
2022/03/24 02:59:36;;;;;;;71.80;43.25;;;5.10;99.90;;;;;;5093288;28;20051;-70
2022/03/24 03:02:06;;;;;;;74.63;43.60;;;5.10;99.90;;;;;;5075502;28;20109;-69
2022/03/24 03:04:34;;;;;;;78.05;43.85;;;5.10;99.90;;;;;;5075616;28;20084;-70
2022/03/24 03:07:02;;;;;;;80.03;46.38;;;5.10;99.90;;;;;;5093193;28;20076;-70
2022/03/24 03:09:29;;;;;;;69.05;41.72;;;5.10;99.90;;;;;;5094077;28;20054;-70
2022/03/24 03:11:56;;;;;;;75.45;44.40;;;5.00;99.90;;;;;;5093913;28;20056;-70
2022/03/24 03:14:25;;;;;;;71.95;44.63;;;5.00;99.90;;;;;;5093226;28;20564;-71
2022/03/24 03:16:52;;;;;;;72.55;42.00;;;5.00;99.90;;;;;;5075525;28;20124;-70
2022/03/24 03:19:20;;;;;;;75.05;44.00;;;5.00;99.90;;;;;;5075433;28;20047;-70
2022/03/24 03:21:48;;;;;;;78.13;46.20;;;5.00;99.90;;;;;;5092999;28;20052;-71
2022/03/24 03:24:15;;;;;;;75.45;45.25;;;5.00;99.90;;;;;;5075808;28;20493;-70
2022/03/24 03:26:42;;;;;;;78.88;45.13;;;5.00;99.90;;;;;;5075206;28;20063;-70
2022/03/24 03:29:10;;;;;;;72.70;44.17;;;4.90;99.90;;;;;;5074912;28;20136;-71
2022/03/24 03:31:39;;;;;;;79.07;45.03;;;5.00;99.90;;;;;;5075470;28;20408;-70
2022/03/24 03:34:07;;;;;;;79.85;43.50;;;4.90;99.90;;;;;;5074595;28;20052;-70
2022/03/24 03:36:35;;;;;;;75.00;44.00;;;4.90;99.90;;;;;;5093534;28;20048;-70
2022/03/24 03:39:03;;;;;;;76.97;43.08;;;4.90;99.90;;;;;;5071789;28;20056;-70
2022/03/24 03:41:30;;;;;;;74.75;45.13;;;4.90;99.90;;;;;;5054514;28;20097;-70
2022/03/24 03:43:58;;;;;;;77.30;43.63;;;4.80;99.90;;;;;;5055295;28;20049;-70
2022/03/24 03:46:25;;;;;;;71.50;43.22;;;4.80;99.90;;;;;;5055345;28;20158;-70
2022/03/24 03:48:54;;;;;;;73.47;43.58;;;4.80;99.90;;;;;;5054668;28;20048;-70
2022/03/24 03:51:21;;;;;;;74.38;43.53;;;4.80;99.90;;;;;;5091884;28;20109;-70
2022/03/24 03:53:48;;;;;;;74.18;42.28;;;4.80;99.90;;;;;;5075282;28;20060;-70
2022/03/24 03:56:15;;;;;;;76.07;42.72;;;4.80;99.90;;;;;;5074431;28;20044;-71
2022/03/24 03:58:42;;;;;;;76.72;43.13;;;4.70;99.90;;;;;;5075394;28;20056;-70
2022/03/24 04:01:09;;;;;;;86.03;46.05;;;4.70;99.90;;;;;;5093139;28;20048;-70
2022/03/24 04:03:38;;;;;;;81.25;45.33;;;4.70;99.90;;;;;;5074508;28;20051;-70
2022/03/24 04:06:09;;;;;;;74.55;42.80;;;4.70;99.90;;;;;;5093013;28;20048;-70
2022/03/24 04:08:36;;;;;;;70.85;41.67;;;4.70;99.90;;;;;;5075195;28;20106;-70
2022/03/24 04:11:07;;;;;;;75.25;43.90;;;4.70;99.90;;;;;;5092406;28;20056;-70
2022/03/24 04:13:34;;;;;;;;;;;4.70;99.90;;;;;;5093430;28;20409;-70
2022/03/24 04:16:02;;;;;;;73.15;41.15;;;4.70;99.90;;;;;;5079047;28;19924;-70
2022/03/24 04:18:29;;;;;;;79.05;42.65;;;4.60;99.90;;;;;;5096786;28;20425;-69
2022/03/24 04:20:56;;;;;;;72.95;42.60;;;4.60;99.90;;;;;;5096999;28;20105;-70
2022/03/24 04:23:25;;;;;;;75.25;43.38;;;4.70;99.90;;;;;;5078339;28;20044;-70
2022/03/24 04:25:52;;;;;;;77.55;43.67;;;4.70;99.90;;;;;;5071970;28;20055;-70
2022/03/24 04:28:19;;;;;;;72.95;41.50;;;4.70;99.90;;;;;;5055341;28;20092;-70
2022/03/24 04:30:46;;;;;;;73.40;40.67;;;4.70;99.90;;;;;;5054767;28;20106;-70
2022/03/24 04:33:13;;;;;;;65.40;40.13;;;4.60;99.90;;;;;;5063465;28;20053;-69
2022/03/24 04:35:40;;;;;;;69.72;39.95;;;4.60;99.90;;;;;;5076741;28;20103;-69
2022/03/24 04:38:07;;;;;;;65.82;39.33;;;4.60;99.90;;;;;;5075912;28;20102;-69
2022/03/24 04:40:35;;;;;;;70.90;39.78;;;4.60;99.90;;;;;;5075598;28;20084;-71
2022/03/24 04:43:04;;;;;;;66.93;40.42;;;4.60;99.90;;;;;;5075358;28;20122;-70
2022/03/24 04:45:32;;;;;;;72.97;40.30;;;4.50;99.90;;;;;;5074494;28;20481;-70
2022/03/24 04:48:00;;;;;;;67.53;39.38;;;4.50;99.90;;;;;;5074898;28;20078;-70
2022/03/24 04:50:27;;;;;;;67.72;40.70;;;4.50;99.90;;;;;;5075406;28;20452;-70
2022/03/24 04:52:54;;;;;;;73.38;41.88;;;4.50;99.90;;;;;;5075608;28;20114;-70
2022/03/24 04:55:21;;;;;;;68.50;40.92;;;4.50;99.90;;;;;;5075795;28;20106;-70
2022/03/24 04:57:50;;;;;;;74.07;42.35;;;4.50;99.90;;;;;;5074332;28;20114;-69
2022/03/24 05:00:18;;;;;;;79.00;42.78;;;4.50;99.90;;;;;;5075390;28;20079;-70
2022/03/24 05:02:45;;;;;;;75.35;41.50;;;4.50;99.90;;;;;;5075964;28;20454;-69
2022/03/24 05:05:12;;;;;;;71.60;41.80;;;4.50;99.90;;;;;;5074865;28;20052;-70
2022/03/24 05:07:41;;;;;;;71.78;40.92;;;4.50;99.90;;;;;;5075200;28;20044;-70
2022/03/24 05:10:08;;;;;;;70.22;40.72;;;4.50;99.90;;;;;;5074514;28;20055;-70
2022/03/24 05:12:38;;;;;;;68.57;41.33;;;4.50;99.90;;;;;;5074869;28;20048;-70
2022/03/24 05:15:08;;;;;;;77.65;43.05;;;4.50;99.90;;;;;;5074565;28;20060;-69
2022/03/24 05:17:35;;;;;;;73.80;42.33;;;4.50;99.90;;;;;;5070752;28;20048;-69
2022/03/24 05:20:02;;;;;;;75.05;43.63;;;4.50;99.90;;;;;;5055140;28;20398;-70
2022/03/24 05:22:29;;;;;;;73.60;42.33;;;4.50;99.90;;;;;;5054607;28;20045;-70
2022/03/24 05:24:56;;;;;;;73.93;42.47;;;4.50;99.90;;;;;;5054962;28;20049;-70
2022/03/24 05:27:23;;;;;;;67.40;38.70;;;4.40;99.90;;;;;;5071517;28;20094;-69
2022/03/24 05:29:50;;;;;;;72.32;41.63;;;4.80;99.90;;;;;;5089198;28;20199;-70
2022/03/24 05:32:18;;;;;;;75.72;44.38;;;5.00;99.90;;;;;;5088979;28;20078;-70
2022/03/24 05:34:46;;;;;;;80.38;47.17;;;5.00;99.90;;;;;;5087275;28;20093;-70
2022/03/24 05:37:14;;;;;;;77.88;45.97;;;4.90;99.90;;;;;;5068640;28;20048;-71
2022/03/24 05:39:42;;;;;;;77.93;45.20;;;4.80;99.90;;;;;;5093652;28;20043;-70
2022/03/24 05:42:09;;;;;;;78.43;46.22;;;4.80;99.90;;;;;;5082740;28;20084;-71
2022/03/24 05:44:36;;;;;;;73.95;44.47;;;4.80;99.90;;;;;;5093973;28;20094;-70
2022/03/24 05:47:03;;;;;;;75.20;44.20;;;4.80;99.90;;;;;;5085967;28;20040;-69
2022/03/24 05:49:32;;;;;;;76.30;43.88;;;4.70;99.90;;;;;;5084221;28;20545;-69
2022/03/24 05:51:59;;;;;;;74.93;44.78;;;4.70;99.90;;;;;;5064280;28;20048;-68
2022/03/24 05:54:25;;;;;;;82.93;47.35;;;4.70;99.90;;;;;;5074240;28;20123;-69
2022/03/24 05:56:52;;;;;;;81.10;45.42;;;4.70;99.90;;;;;;5068431;28;20097;-69
2022/03/24 05:59:19;;;;;;;77.85;45.83;;;4.80;99.90;;;;;;5084659;28;20048;-70
2022/03/24 06:01:47;;;;;;;79.97;46.55;;;4.80;99.90;;;;;;5087403;28;20113;-69
2022/03/24 06:04:15;;;;;;;77.90;45.85;;;4.90;99.90;;;;;;5068312;28;20436;-70
2022/03/24 06:06:45;;;;;;;77.38;46.20;;;4.90;99.90;;;;;;5069130;28;20050;-70
2022/03/24 06:09:12;;;;;;;76.72;44.40;;;4.90;99.90;;;;;;5070506;28;20067;-71
2022/03/24 06:11:39;;;;;;;67.53;42.72;;;5.00;99.90;;;;;;5087301;28;20048;-70
2022/03/24 06:14:10;;;;;;;74.28;45.50;;;5.10;99.90;;;;;;5085946;28;20461;-72
2022/03/24 06:16:37;;;;;;;82.75;46.33;;;5.10;99.90;;;;;;5084786;28;20095;-69
2022/03/24 06:19:04;;;;;;;74.68;44.53;;;5.20;99.90;;;;;;5069839;28;20060;-69
2022/03/24 06:21:31;;;;;;;70.90;43.10;;;5.30;99.90;;;;;;5068446;28;20093;-69
2022/03/24 06:24:00;;;;;;;71.28;41.35;;;5.30;99.90;;;;;;5088384;28;20491;-70
2022/03/24 06:26:29;;;;;;;72.05;42.40;;;5.50;99.90;;;;;;5070485;28;20166;-69
2022/03/24 06:28:55;;;;;;;72.78;41.83;;;5.60;99.90;;;;;;5089376;28;20383;-69
2022/03/24 06:31:23;;;;;;;73.60;43.90;;;5.70;99.90;;;;;;5087331;28;20101;-69
2022/03/24 06:33:49;;;;;;;71.55;42.75;;;5.70;99.90;;;;;;5090783;28;20048;-69
2022/03/24 06:36:16;;;;;;;67.97;42.03;;;5.90;99.90;;;;;;5064781;28;20546;-70
2022/03/24 06:38:44;;;;;;;72.93;41.13;;;6.00;99.90;;;;;;5065241;28;20120;-71
2022/03/24 06:41:14;;;;;;;68.88;41.78;;;6.20;99.90;;;;;;5088344;28;20089;-70
2022/03/24 06:43:41;;;;;;;64.70;39.78;;;6.70;99.90;;;;;;5084851;28;20784;-69
2022/03/24 06:46:09;;;;;;;64.68;39.03;;;7.10;99.90;;;;;;5073752;28;20106;-70
2022/03/24 06:48:36;;;;;;;64.85;40.67;;;7.40;99.90;;;;;;5068282;28;20048;-69
2022/03/24 06:51:04;;;;;;;63.47;41.05;;;7.80;99.90;;;;;;5066980;28;20059;-70
2022/03/24 06:53:31;;;;;;;64.93;39.40;;;8.10;99.90;;;;;;5085802;28;20044;-69
2022/03/24 06:55:58;;;;;;;58.30;37.88;;;8.30;99.90;;;;;;5079501;28;20060;-69
2022/03/24 06:58:26;;;;;;;61.67;39.00;;;8.60;99.90;;;;;;5083272;28;20104;-69
2022/03/24 07:00:53;;;;;;;64.63;40.00;;;9.00;99.90;;;;;;5088476;28;20048;-70
2022/03/24 07:03:20;;;;;;;68.38;41.42;;;9.40;99.90;;;;;;5084614;28;20048;-70
2022/03/24 07:05:47;;;;;;;68.13;39.92;;;9.90;99.90;;;;;;5068933;28;20056;-70
2022/03/24 07:08:14;;;;;;;64.13;40.88;;;10.40;99.90;;;;;;5085830;28;20052;-70
2022/03/24 07:10:41;;;;;;;64.45;41.72;;;10.90;99.90;;;;;;5085309;28;20060;-70
2022/03/24 07:13:08;;;;;;;66.75;41.40;;;11.50;99.90;;;;;;5065060;28;20052;-70
2022/03/24 07:15:36;;;;;;;62.13;40.28;;;12.30;99.90;;;;;;5086394;28;20062;-70
2022/03/24 07:18:04;;;;;;;59.65;41.03;;;13.00;99.90;;;;;;5066301;28;20079;-70
2022/03/24 07:20:33;;;;;;;57.97;37.42;;;13.50;99.90;;;;;;5071579;28;20089;-71
2022/03/24 07:23:02;;;;;;;49.47;33.53;;;13.90;99.90;;;;;;5062235;28;20055;-73
2022/03/24 07:25:30;;;;;;;48.85;32.58;;;14.40;99.90;;;;;;5071247;28;20055;-72
2022/03/24 07:27:56;;;;;;;52.67;36.30;;;14.40;99.90;;;;;;5073645;28;20048;-71
2022/03/24 07:30:23;;;;;;;52.50;36.55;;;14.60;99.90;;;;;;5072539;28;20500;-71
2022/03/24 07:32:52;;;;;;;56.65;37.35;;;14.80;99.90;;;;;;5074523;28;20052;-71
2022/03/24 07:35:19;;;;;;;49.65;36.80;;;15.00;99.90;;;;;;5091356;28;20052;-71
2022/03/24 07:37:47;;;;;;;55.42;38.72;;;15.20;99.90;;;;;;5092344;28;20044;-72
2022/03/24 07:40:18;;;;;;;60.40;40.38;;;15.50;99.90;;;;;;5072721;28;20487;-71
2022/03/24 07:42:45;;;;;;;53.03;36.92;;;15.90;99.90;;;;;;5074074;28;20079;-71
2022/03/24 07:45:13;;;;;;;51.20;37.38;;;16.40;99.90;;;;;;5073039;28;20060;-72
2022/03/24 07:48:08;;;;;;;51.05;36.90;;;16.60;99.90;;;;;;5091702;28;20054;-73
2022/03/24 07:50:36;;;;;;;45.97;34.15;;;16.80;98.30;;;;;;5089425;28;20131;-73
2022/03/24 07:53:10;;;;;;;46.72;33.80;;;17.00;99.30;;;;;;5074130;28;20107;-72
2022/03/24 07:55:41;;;;;;;43.13;33.70;;;17.50;98.50;;;;;;5092315;28;20060;-73
2022/03/24 07:58:08;;;;;;;53.00;37.13;;;17.80;97.70;;;;;;5073084;28;20047;-72
2022/03/24 08:00:35;;;;;;;54.50;39.08;;;18.30;97.20;;;;;;5073441;28;20048;-74
2022/03/24 08:03:02;;;;;;;52.95;38.83;;;18.60;96.40;;;;;;5073708;28;20503;-69
2022/03/24 08:05:30;;;;;;;53.17;39.92;;;18.90;95.50;;;;;;5091640;28;20048;-74
2022/03/24 08:07:57;;;;;;;56.80;39.63;;;19.00;94.10;;;;;;5073823;28;20052;-70
2022/03/24 08:10:25;;;;;;;52.13;40.35;;;19.20;93.60;;;;;;5090609;28;20122;-70
2022/03/24 08:12:52;;;;;;;49.75;39.22;;;19.30;92.90;;;;;;5074032;28;20102;-72
2022/03/24 08:15:18;;;;;;;50.10;39.65;;;19.60;92.80;;;;;;5073005;28;20047;-71
2022/03/24 08:17:45;;;;;;;53.53;41.40;;;19.70;92.50;;;;;;5091202;28;20059;-72
2022/03/24 08:20:12;;;;;;;52.00;40.05;;;19.70;91.90;;;;;;5073262;28;20056;-72
2022/03/24 08:22:41;;;;;;;49.92;38.72;;;19.90;91.30;;;;;;5090861;28;20052;-71
2022/03/24 08:25:09;;;;;;;48.65;39.33;;;20.20;90.60;;;;;;5072960;28;20108;-72
2022/03/24 08:27:36;;;;;;;51.53;38.50;;;20.50;90.30;;;;;;5073582;28;20055;-72
2022/03/24 08:30:05;;;;;;;49.58;39.17;;;20.80;89.80;;;;;;5072592;28;20123;-71
2022/03/24 08:32:32;;;;;;;53.33;39.35;;;21.10;88.60;;;;;;5091432;28;20139;-72
2022/03/24 08:34:59;;;;;;;47.28;38.67;;;21.10;88.00;;;;;;5072793;28;20097;-72
2022/03/24 08:37:25;;;;;;;48.58;37.72;;;21.20;86.90;;;;;;5072571;28;20040;-71
2022/03/24 08:39:54;;;;;;;51.13;38.25;;;21.60;85.50;;;;;;5090874;28;20098;-71
2022/03/24 08:42:21;;;;;;;48.90;38.05;;;21.90;83.80;;;;;;5090993;28;20109;-72
2022/03/24 08:44:47;;;;;;;49.42;36.58;;;22.20;83.20;;;;;;5072035;28;20064;-71
2022/03/24 08:47:14;;;;;;;47.20;36.50;;;22.50;82.00;;;;;;5091005;28;20056;-73
2022/03/24 08:49:41;;;;;;;45.15;37.25;;;22.70;80.90;;;;;;5090946;28;20052;-73
2022/03/24 08:52:10;;;;;;;46.40;35.33;;;22.90;79.80;;;;;;5095000;28;20055;-73
2022/03/24 08:54:37;;;;;;;44.55;36.00;;;23.10;78.70;;;;;;5090951;28;20384;-72
2022/03/24 08:57:05;;;;;;;46.33;36.67;;;23.20;78.20;;;;;;5091328;28;20484;-72
2022/03/24 08:59:32;;;;;;;42.70;36.60;;;23.20;76.30;;;;;;5090687;28;20102;-72
2022/03/24 09:01:59;;;;;;;49.20;37.30;;;23.60;76.40;;;;;;5094961;28;20062;-73
2022/03/24 09:04:27;;;;;;;42.80;35.47;;;23.80;75.70;;;;;;5075413;28;20518;-73
2022/03/24 09:06:54;;;;;;;43.95;35.58;;;23.70;74.50;;;;;;5094430;28;20407;-73
2022/03/24 09:09:22;;;;;;;41.35;34.80;;;24.20;73.80;;;;;;5076419;28;20051;-73
2022/03/24 09:11:49;;;;;;;39.85;33.97;;;24.30;72.50;;;;;;5076080;28;20052;-73
2022/03/24 09:14:17;;;;;;;46.78;35.00;;;24.60;71.40;;;;;;5076544;28;20109;-73
2022/03/24 09:16:44;;;;;;;47.00;37.42;;;24.80;70.10;;;;;;5076652;28;20503;-72
2022/03/24 09:19:12;;;;;;;42.20;35.70;;;25.10;69.50;;;;;;5075577;28;20404;-73
2022/03/24 09:21:39;;;;;;;40.42;35.78;;;25.30;68.80;;;;;;5076399;28;20052;-73
2022/03/24 09:24:06;;;;;;;43.17;35.15;;;25.40;69.10;;;;;;5094196;28;20530;-73
2022/03/24 09:26:33;;;;;;;41.90;35.13;;;25.50;68.30;;;;;;5075516;28;20553;-73
2022/03/24 09:29:01;;;;;;;43.45;36.15;;;25.40;68.20;;;;;;5093001;28;20043;-73
2022/03/24 09:31:29;;;;;;;46.17;35.38;;;25.20;67.70;;;;;;5076381;28;20143;-73
2022/03/24 09:33:56;;;;;;;40.75;35.45;;;25.40;67.50;;;;;;5093498;28;20055;-74
2022/03/24 09:36:23;;;;;;;39.42;34.25;;;25.40;67.50;;;;;;5076362;28;20094;-73
2022/03/24 09:38:50;;;;;;;41.58;34.60;;;25.20;66.70;;;;;;5075608;28;20047;-73
2022/03/24 09:41:20;;;;;;;42.13;34.17;;;25.20;66.20;;;;;;5093992;28;20499;-73
2022/03/24 09:43:47;;;;;;;;;;;25.40;65.30;;;;;;5093893;28;20117;-73
2022/03/24 09:46:15;;;;;;;46.83;34.10;;;25.70;63.60;;;;;;5094198;28;20295;-73
2022/03/24 09:48:44;;;;;;;40.75;33.75;;;26.20;64.40;;;;;;5092925;28;20048;-73
2022/03/24 09:51:11;;;;;;;40.42;32.88;;;26.70;63.00;;;;;;5093855;28;20048;-73
2022/03/24 09:53:40;;;;;;;39.65;33.33;;;27.00;62.80;;;;;;5094222;28;20137;-73
2022/03/24 09:56:08;;;;;;;41.88;33.92;;;27.10;62.30;;;;;;5092852;28;20052;-72
2022/03/24 09:58:35;;;;;;;46.50;32.20;;;27.20;61.90;;;;;;5076018;28;20048;-74
2022/03/24 10:01:02;;;;;;;40.97;34.35;;;27.50;62.50;;;;;;5092971;28;20055;-74
2022/03/24 10:03:29;;;;;;;40.45;32.72;;;27.80;61.90;;;;;;5077135;28;20055;-73
2022/03/24 10:05:59;;;;;;;42.33;33.83;;;28.00;61.60;;;;;;5075222;28;20105;-73
2022/03/24 10:08:27;;;;;;;40.95;33.90;;;27.50;61.40;;;;;;5093150;28;20499;-74
2022/03/24 10:10:59;;;;;;;38.38;32.92;;;27.20;61.80;;;;;;5093206;28;20048;-73
2022/03/24 10:13:42;;;;;;;39.90;32.65;;;27.50;61.10;;;;;;5092948;28;20055;-74
2022/03/24 10:16:09;;;;;;;41.22;33.10;;;27.40;59.90;;;;;;5093163;28;20086;-74
2022/03/24 10:18:36;;;;;;;37.78;31.85;;;27.40;60.00;;;;;;5092943;28;20048;-74
2022/03/24 10:21:13;;;;;;;38.80;33.17;;;27.40;59.70;;;;;;5075715;28;20109;-74
2022/03/24 10:23:45;;;;;;;38.60;31.23;;;27.40;59.30;;;;;;5092645;28;20135;-74
2022/03/24 10:26:12;;;;;;;37.90;31.92;;;27.40;58.20;;;;;;5093355;28;20068;-74
2022/03/24 10:28:39;;;;;;;38.20;31.80;;;27.40;58.80;;;;;;5071911;28;20047;-72
2022/03/24 10:31:06;;;;;;;35.35;31.02;;;27.20;59.20;;;;;;5090082;28;20058;-73
2022/03/24 10:33:34;;;;;;;41.38;32.38;;;27.40;59.30;;;;;;5074668;28;20060;-72
2022/03/24 10:36:12;;;;;;;36.58;30.95;;;27.50;59.40;;;;;;5092186;28;20407;-73
2022/03/24 10:38:42;;;;;;;34.33;30.63;;;28.10;57.90;;;;;;5093549;28;20048;-73
2022/03/24 10:41:14;;;;;;;39.50;30.83;;;28.30;58.10;;;;;;5074819;28;20048;-73
2022/03/24 10:43:41;;;;;;;36.65;29.95;;;28.40;57.50;;;;;;5072122;28;20133;-73
2022/03/24 10:46:13;;;;;;;36.83;29.15;;;28.60;57.10;;;;;;5074504;28;20113;-73
2022/03/24 10:48:40;;;;;;;35.67;30.60;;;28.40;55.60;;;;;;5083231;28;20088;-71
2022/03/24 10:51:08;;;;;;;37.75;31.10;;;28.60;57.00;;;;;;5058758;28;20060;-73
2022/03/24 10:53:42;;;;;;;34.03;29.13;;;29.20;57.50;;;;;;5069711;28;20049;-73
2022/03/24 10:56:13;;;;;;;39.42;29.63;;;29.60;55.70;;;;;;5065952;28;20052;-73
2022/03/24 10:58:46;;;;;;;38.65;30.38;;;29.60;55.50;;;;;;5070068;28;20046;-73
2022/03/24 11:01:16;;;;;;;34.30;28.02;;;29.80;55.00;;;;;;5065432;28;20052;-73
2022/03/24 11:03:44;;;;;;;36.72;28.83;;;30.00;54.40;;;;;;5083955;28;20056;-72
2022/03/24 11:06:13;;;;;;;31.70;26.95;;;29.90;54.30;;;;;;5065994;28;20048;-72
2022/03/24 11:08:42;;;;;;;32.55;28.02;;;29.90;53.60;;;;;;5087599;28;20090;-73
2022/03/24 11:11:11;;;;;;;33.85;28.65;;;30.40;53.00;;;;;;5085557;28;20054;-73
2022/03/24 11:13:44;;;;;;;34.72;28.08;;;30.10;53.00;;;;;;5068074;28;20055;-73
2022/03/24 11:16:12;;;;;;;35.15;29.20;;;30.30;51.90;;;;;;5084093;28;20071;-73
2022/03/24 11:18:40;;;;;;;33.38;26.13;;;30.20;52.60;;;;;;5086436;28;20050;-73
2022/03/24 11:21:13;;;;;;;35.70;28.75;;;30.10;52.50;;;;;;5069859;28;20051;-72
2022/03/24 11:23:41;;;;;;;33.22;28.45;;;30.00;51.90;;;;;;5089984;28;20047;-72
2022/03/24 11:26:10;;;;;;;37.03;26.67;;;30.10;51.50;;;;;;5071908;28;20113;-72
2022/03/24 11:28:38;;;;;;;33.83;27.80;;;30.00;51.60;;;;;;5073717;28;20052;-72
2022/03/24 11:31:08;;;;;;;34.67;28.38;;;30.20;51.60;;;;;;5086885;28;20184;-72
2022/03/24 11:33:43;;;;;;;40.88;30.65;;;30.40;51.80;;;;;;5091126;28;20515;-73
2022/03/24 11:36:10;;;;;;;35.28;28.15;;;30.50;51.20;;;;;;5092445;28;20054;-73
2022/03/24 11:38:39;;;;;;;32.50;28.63;;;30.40;50.90;;;;;;5073342;28;20052;-73
2022/03/24 11:41:12;;;;;;;35.83;29.33;;;30.60;50.90;;;;;;5090624;28;20048;-73
2022/03/24 11:43:45;;;;;;;33.03;27.77;;;30.60;50.40;;;;;;5091926;28;20044;-73
2022/03/24 11:46:15;;;;;;;33.05;27.90;;;30.40;51.00;;;;;;5092590;28;20051;-73
2022/03/24 11:48:44;;;;;;;34.75;29.15;;;29.90;51.40;;;;;;5072632;28;20047;-73
2022/03/24 11:51:20;;;;;;;32.08;28.83;;;29.80;51.50;;;;;;5091728;28;20048;-72
2022/03/24 11:53:46;;;;;;;32.63;28.00;;;30.00;50.70;;;;;;5092396;28;20513;-73
2022/03/24 11:56:17;;;;;;;30.92;26.48;;;30.00;51.30;;;;;;5091445;28;20044;-72
2022/03/24 11:59:18;;;;;;;31.30;26.98;;;30.50;50.70;;;;;;5073718;28;20064;-72
2022/03/24 12:01:45;;;;;;;31.55;26.75;;;30.30;49.70;;;;;;5073241;28;20147;-72
2022/03/24 12:04:14;;;;;;;27.98;24.95;;;30.40;50.10;;;;;;5091827;28;20450;-73
2022/03/24 12:06:55;;;;;;;28.98;25.10;;;30.50;49.60;;;;;;5072349;28;20086;-72
2022/03/24 12:09:34;;;;;;;25.95;22.33;;;30.60;48.20;;;;;;5072593;28;20052;-72
2022/03/24 12:12:10;;;;;;;28.65;23.58;;;30.20;47.60;;;;;;5091564;28;20052;-72
2022/03/24 12:14:47;;;;;;;25.92;22.70;;;29.70;48.20;;;;;;5068145;28;20086;-72
2022/03/24 12:17:23;;;;;;;28.33;23.48;;;29.30;48.60;;;;;;5091295;28;20048;-72
2022/03/24 12:19:51;;;;;;;29.52;23.48;;;29.80;48.00;;;;;;5073233;28;20079;-72
2022/03/24 12:22:37;;;;;;;27.15;23.00;;;29.50;48.00;;;;;;5090829;28;20412;-73
2022/03/24 12:25:25;;;;;;;26.58;23.52;;;29.50;47.70;;;;;;5073010;28;20093;-72
2022/03/24 12:27:59;;;;;;;27.20;22.60;;;29.30;47.10;;;;;;5087698;28;20083;-72
2022/03/24 12:30:27;;;;;;;29.75;23.63;;;29.60;47.10;;;;;;5066734;28;20056;-72
2022/03/24 12:33:05;;;;;;;30.38;23.98;;;29.80;47.30;;;;;;5068171;28;20056;-72
2022/03/24 12:35:48;;;;;;;29.92;25.05;;;29.80;46.60;;;;;;5069239;28;20580;-70
2022/03/24 12:38:29;;;;;;;27.67;23.42;;;29.90;46.40;;;;;;5084168;28;20044;-71
2022/03/24 12:41:24;;;;;;;29.92;24.17;;;29.30;46.90;;;;;;5066570;28;20512;-71